• Join FlightAware (Why Join?)
  • Login
  • US Flag 
03:56PM EST


 

Airport Tracker/Info


-or-


 

Live Flight TrackerFlight Track Log ✈ N552XJ ✈ 19-Apr-2013 ✈ KTEB - KOPF

Flight Track Log - Related Links

Times and Time Zones

All times are in EDT time to prevent confusion due to time zone crossing. See the N552XJ flight status page for this flight to view local times or setup timezone preferences in your user account.

Time Position Orientation Groundspeed Altitude Reporting Facility
EDT Latitude Longitude Course Direction KTS MPH feet Rate Location/Type
09:24AM 40.8333 -74.1167 180° South 190 219 1,500  Level New York TRACON
09:24AM 40.8167 -74.1833 252° West 207 238 1,700 1,140 Climbing New York TRACON
09:25AM 40.8000 -74.2667 255° West 194 223 3,700 2,100 Climbing New York TRACON
09:26AM 40.7500 -74.3000 207° Southwest 237 273 6,000 1,140 Climbing New York TRACON
09:27AM 40.6833 -74.3000 180° South 247 284 6,000  Level New York TRACON
09:29AM 40.1905 -74.1500 180° South  Level FlightAware Approximate
09:29AM 40.5556 -74.2756 172° South 250 288 6,000  Level New York Center
09:30AM 40.4917 -74.2478 162° South 250 288 6,000  Level New York Center
09:31AM 40.4239 -74.2169 161° South 250 288 6,000 300 Level New York Center
09:32AM 40.3581 -74.1892 162° South 256 295 6,700 1,800 Climbing New York Center
09:33AM 40.2872 -74.1831 176° South 256 295 9,700 3,120 Climbing New York Center
09:34AM 40.2186 -74.1769 176° South 264 304 13,000 2,520 Climbing New York Center
09:35AM 40.1333 -74.1700 176° South 293 337 14,800 960 Climbing New York Center
09:37AM 40.0661 -74.0500 126° Southeast 318 366 15,000 1,140 Climbing New York Center
09:38AM 40.0364 -73.9131 106° East 363 418 17,100 2,160 Climbing New York Center
09:38AM 40.0067 -73.7708 105° East 388 447 19,300 1,860 Climbing New York Center
09:39AM 39.9789 -73.6314 105° East 405 466 20,900 1,320 Climbing New York Center
09:40AM 39.9494 -73.4758 104° East 432 497 22,000 1,920 Climbing New York Center
09:42AM 39.9156 -73.3042 104° East 437 503 24,800 2,520 Climbing New York Center
09:43AM 39.8856 -73.1514 104° East 437 503 27,200 1,980 Climbing New York Center
09:43AM 39.8531 -72.9964 105° East 437 503 28,800 900 Climbing New York Center
09:44AM 39.8189 -72.8275 105° East 453 521 29,000 540 Climbing New York Center
09:45AM 39.7631 -72.6719 115° Southeast 467 537 30,000 1,320 Climbing New York Center
09:47AM 39.6839 -72.5378 127° Southeast 466 536 31,700 1,680 Climbing New York Center
09:48AM 39.5789 -72.4408 145° Southeast 459 528 33,400 1,680 Climbing New York Center
09:49AM 39.4700 -72.3386 144° Southeast 471 542 35,100 1,560 Climbing New York Center
09:49AM 39.3628 -72.2475 147° Southeast 476 548 36,500 1,380 Climbing New York Center
09:51AM 39.2556 -72.1461 144° Southeast 476 548 37,900 1,260 Climbing New York Center
09:52AM 39.1375 -72.0742 155° Southeast 471 542 39,100 1,020 Climbing New York Center
09:52AM 39.0083 -72.0797 182° South 451 519 40,000 780 Climbing New York Center
09:53AM 38.8808 -72.0906 184° South 450 518 40,700 720 Climbing New York Center
09:55AM 38.7472 -72.1200 190° South 467 537 41,500 780 Climbing New York Center
09:56AM 38.6197 -72.1364 186° South 473 544 42,400 720 Climbing New York Center
09:56AM 38.4922 -72.1550 187° South 473 544 43,000 300 Climbing New York Center
09:57AM 38.3608 -72.1711 185° South 473 544 43,000  Level New York Center
09:59AM 38.2292 -72.1869 185° South 473 544 43,000  Level New York Center
09:59AM 38.0994 -72.2133 189° South 479 551 43,000  Level New York Center
10:00AM 37.9678 -72.2319 186° South 479 551 43,000  Level New York Center
10:02AM 37.8383 -72.2475 185° South 484 557 43,000  Level New York Center
10:02AM 37.7089 -72.2658 186° South 484 557 43,000  Level New York Center
10:03AM 37.5981 -72.2847 188° South 477 549 43,000  Level New York Center
10:04AM 37.4664 -72.2975 184° South 464 534 43,000  Level New York Center
10:05AM 37.3408 -72.3186 188° South 469 540 43,000  Level New York Center
10:07AM 37.2092 -72.3367 186° South 469 540 43,000  Level New York Center
10:08AM 37.0797 -72.3547 186° South 475 547 43,000  Level New York Center
10:09AM 36.9439 -72.3700 185° South 482 555 43,000  Level New York Center
10:09AM 36.8183 -72.3881 187° South 477 549 43,000  Level New York Center
10:10AM 36.6806 -72.3953 182° South 477 549 43,000  Level New York Center
10:11AM 36.5450 -72.3950 180° South 484 557 43,000  Level New York Center
10:13AM 36.4136 -72.3972 181° South 479 551 43,000  Level New York Center
10:13AM 36.2800 -72.3994 181° South 474 545 43,000  Level New York Center
10:14AM 36.1464 -72.4017 181° South 480 552 43,000  Level New York Center
10:16AM 36.0067 -72.4039 181° South 484 557 43,000  Level New York Center
10:17AM 35.8794 -72.4011 179° South 479 551 43,000  Level New York Center
10:17AM 35.7439 -72.4033 181° South 484 557 43,000  Level New York Center
10:19AM 35.6039 -72.4081 182° South 491 565 43,000  Level New York Center
10:20AM 35.4725 -72.4053 179° South 491 565 43,000  Level New York Center
10:20AM 35.3347 -72.4072 181° South 491 565 43,000  Level New York Center
10:21AM 35.2014 -72.4094 181° South 491 565 43,000  Level New York Center
10:23AM 35.0694 -72.4475 193° South 491 565 43,000  Level New York Center
10:24AM 34.9678 -72.5364 216° Southwest 475 547 43,000  Level New York Center
10:25AM 34.8847 -72.6561 230° Southwest 456 525 43,000  Level New York Center
10:25AM 34.8075 -72.7681 230° Southwest 450 518 43,000  Level New York Center
10:26AM 34.7114 -72.8994 228° Southwest 474 545 43,000  Level New York Center
10:27AM 34.6322 -73.0108 229° Southwest 474 545 43,000  Level New York Center
10:28AM 34.5419 -73.1442 231° Southwest 474 545 43,000  Level New York Center
10:29AM 34.4517 -73.2675 228° Southwest 474 545 43,000  Level New York Center
10:31AM 34.3719 -73.3831 230° Southwest 469 540 43,000  Level New York Center
10:31AM 34.2836 -73.5058 229° Southwest 474 545 43,000  Level New York Center
10:32AM 34.2014 -73.6211 229° Southwest 468 539 43,000  Level New York Center
10:33AM 34.1150 -73.7408 229° Southwest 468 539 43,000  Level New York Center
10:34AM 34.0306 -73.8631 230° Southwest 474 545 43,000  Level New York Center
10:35AM 33.9461 -73.9822 230° Southwest 514 592 43,000  Level New York Center
10:37AM 33.8572 -74.0986 227° Southwest 498 573 43,000  Level New York Center
10:37AM 33.7725 -74.2175 229° Southwest 485 558 43,000  Level New York Center
10:39AM 33.6897 -74.3339 229° Southwest 472 543 43,000  Level New York Center
10:39AM 33.6047 -74.4522 229° Southwest 465 535 43,000  Level New York Center
10:41AM 33.5236 -74.5706 231° Southwest 470 541 43,000  Level New York Center
10:41AM 33.4342 -74.6906 228° Southwest 472 543 43,000  Level New York Center
10:42AM 33.3553 -74.8061 231° Southwest 463 533 43,000  Level New York Center
10:43AM 33.2697 -74.9233 229° Southwest 469 540 43,000  Level New York Center
10:44AM 33.1861 -75.0433 230° Southwest 467 537 43,000  Level New York Center
10:46AM 33.1047 -75.1603 230° Southwest 466 536 43,000  Level New York Center
10:47AM 33.0233 -75.2747 230° Southwest 471 542 43,000  Level New York Center
10:47AM 32.9414 -75.3939 231° Southwest 471 542 43,000  Level New York Center
10:48AM 32.8556 -75.5103 229° Southwest 471 542 43,000  Level New York Center
10:49AM 32.7714 -75.6264 229° Southwest 466 536 43,000  Level New York Center
10:50AM 32.6897 -75.7397 229° Southwest 466 536 43,000  Level New York Center
10:52AM 32.6033 -75.8578 229° Southwest 466 536 43,000  Level New York Center
10:52AM 32.5144 -75.9778 229° Southwest 472 543 43,000  Level New York Center
10:53AM 32.4369 -76.0836 229° Southwest 467 537 43,000  Level New York Center
10:54AM 32.3522 -76.2008 229° Southwest 467 537 43,000  Level New York Center
10:56AM 32.2008 -76.4094 229° Southwest 446 513 43,000  Level Jacksonville Center
10:57AM 32.1150 -76.5258 229° Southwest 453 521 43,000  Level Jacksonville Center
10:58AM 32.0289 -76.6397 228° Southwest 458 527 43,000  Level Jacksonville Center
10:59AM 31.9464 -76.7481 228° Southwest 463 533 43,000  Level Jacksonville Center
11:00AM 31.8622 -76.8636 229° Southwest 457 526 43,000  Level Jacksonville Center
11:01AM 31.7778 -76.9742 228° Southwest 462 532 43,000 -60 Level Jacksonville Center
11:02AM 31.6978 -77.0917 231° Southwest 460 529 42,900 -60 Descending Jacksonville Center
11:03AM 31.6175 -77.2136 232° Southwest 468 539 42,900  Level Jacksonville Center
11:04AM 31.5411 -77.3256 231° Southwest 469 540 43,000  Climbing Jacksonville Center
11:05AM 31.4606 -77.4425 231° Southwest 469 540 43,000  Level Jacksonville Center
11:06AM 31.3842 -77.5564 232° Southwest 458 527 43,000  Level Jacksonville Center
11:07AM 31.3036 -77.6753 232° Southwest 463 533 43,000  Level Jacksonville Center
11:08AM 31.2250 -77.7961 233° Southwest 472 543 43,000  Level Jacksonville Center
11:09AM 31.1483 -77.9192 234° Southwest 470 541 43,000  Level Jacksonville Center
11:10AM 31.0714 -78.0300 231° Southwest 465 535 43,000  Level Jacksonville Center
11:11AM 30.9903 -78.1506 232° Southwest 467 537 43,000 -60 Level Jacksonville Center
11:12AM 30.9214 -78.2653 235° Southwest 472 543 42,900  Descending Jacksonville Center
11:13AM 30.8400 -78.3831 231° Southwest 466 536 43,000  Climbing Jacksonville Center
11:14AM 30.7647 -78.4953 232° Southwest 466 536 43,000 -60 Level Jacksonville Center
11:15AM 30.6850 -78.6100 231° Southwest 460 529 42,900  Descending Jacksonville Center
11:16AM 30.6158 -78.7217 234° Southwest 447 514 43,000  Climbing Jacksonville Center
11:17AM 30.5358 -78.8339 230° Southwest 447 514 43,000 -360 Level Jacksonville Center
11:18AM 30.4558 -78.9408 229° Southwest 441 507 42,300 -840 Descending Jacksonville Center
11:21AM 30.1422 -79.0672 199° South 467 537 40,000 -660 Descending Miami Center
11:22AM 30.0000 -79.1100 195° South 477 549 40,000  Level Miami Center
11:23AM 29.8700 -79.1456 193° South 477 549 40,000  Level Miami Center
11:24AM 29.7381 -79.1808 193° South 487 560 40,000  Level Miami Center
11:25AM 29.6064 -79.2114 191° South 494 568 40,000  Level Miami Center
11:26AM 29.4744 -79.2444 192° South 496 571 40,000  Level Miami Center
11:27AM 29.3403 -79.2747 191° South 490 564 40,000  Level Miami Center
11:28AM 29.2083 -79.3075 192° South 490 564 40,000 -240 Level Miami Center
11:29AM 29.0764 -79.3428 193° South 490 564 39,600 -780 Descending Miami Center
11:30AM 28.9506 -79.3753 193° South 485 558 38,500 -1,020 Descending Miami Center
11:31AM 28.8164 -79.4078 192° South 492 566 37,600 -1,020 Descending Miami Center
11:32AM 28.6864 -79.4403 192° South 487 560 36,500 -840 Descending Miami Center
11:33AM 28.5522 -79.4728 192° South 487 560 36,000 -300 Descending Miami Center
11:34AM 28.4222 -79.5075 193° South 487 560 36,000  Level Miami Center
11:35AM 28.2861 -79.5397 192° South 492 566 36,000 -600 Level Miami Center
11:36AM 28.1519 -79.5719 192° South 492 566 34,800 -1,500 Descending Miami Center
11:37AM 28.0178 -79.6039 192° South 492 566 33,100 -1,740 Descending Miami Center
11:38AM 27.8833 -79.6383 193° South 492 566 31,400 -1,740 Descending Miami Center
11:39AM 27.7575 -79.6681 192° South 479 551 29,700 -1,680 Descending Miami Center
11:40AM 27.6317 -79.7000 193° South 474 545 28,100 -1,620 Descending Miami Center
11:41AM 27.5078 -79.7297 192° South 469 540 26,500 -1,560 Descending Miami Center
11:42AM 27.3842 -79.7572 191° South 469 540 25,000 -1,500 Descending Miami Center
11:43AM 27.2775 -79.7683 185° South 443 510 23,600 -1,380 Descending Miami Center
11:44AM 27.1525 -79.7514 173° South 418 481 22,300 -1,500 Descending Miami Center
11:45AM 27.0422 -79.7322 171° South 413 475 20,600 -1,920 Descending Miami Center
11:46AM 26.9319 -79.7133 171° South 401 461 18,500 -2,100 Descending Miami Center
11:47AM 26.8339 -79.6992 173° South 408 470 16,500 -2,100 Descending Miami Center
11:47AM 26.7672 -79.6906 173° South 392 451 15,400 -2,220 Descending Miami Center
11:48AM 26.7211 -79.7011 192° South 397 457 14,300 -2,100 Descending Miami Center
11:49AM 26.6411 -79.7364 202° Southwest 333 383 12,600 -1,980 Descending Miami Center
11:50AM 26.5631 -79.7764 205° Southwest 298 343 10,700 -1,740 Descending Miami Center
11:51AM 26.4914 -79.8092 202° Southwest 276 318 9,100 -1,380 Descending Miami Center
11:52AM 26.4217 -79.8425 203° Southwest 270 311 8,000 -840 Descending Miami Center
11:53AM 26.3497 -79.8917 211° Southwest 290 334 7,500 -840 Descending Miami Center
11:54AM 26.2942 -79.9458 221° Southwest 277 319 6,400 -780 Descending Miami Center
11:55AM 26.2344 -80.0022 220° Southwest 262 302 6,000 -240 Descending Miami Center
11:56AM 26.1811 -80.0564 222° Southwest 264 304 6,000 -60 Level Miami Center
11:57AM 26.1539 -80.1503 252° West 263 303 5,900 -600 Descending Miami Center
11:58AM 26.1503 -80.2244 267° West 271 312 4,800 -1,020 Descending Miami Center
11:59AM 26.0931 -80.2619 210° Southwest 252 290 4,000 -540 Descending Miami Center
12:00PM 26.0342 -80.2789 194° South 178 205 3,800 -840 Descending Miami Center
12:01PM 26.0078 -80.3289 240° Southwest 190 219 2,300 -900 Descending Miami Center
12:02PM 26.0064 -80.3844 268° West 178 205 2,000 -180 Descending Miami Center
12:03PM 26.0031 -80.4444 266° West 192 221 2,000  Level Miami Center
12:04PM 25.9669 -80.4619 204° Southwest 153 176 2,000  Level Miami Center
12:05PM 25.9211 -80.4606 178° South 163 188 2,000  Level Miami Center
12:06PM 25.9056 -80.4114 109° East 168 193 2,000 -420 Level Miami Center
12:07PM 25.9069 -80.3608 88° East 159 183 1,200 -780 Descending Miami Center
12:08PM 25.9100 -80.3169 86° East 126 145 500 -720 Descending Miami Center
12:10PM 25.9074 -80.2782 114° Southeast  Level Estimated
12:17PM 25.9074 -80.2782 114° Southeast  Level Estimated